Time;durP1;ratioP1;P1;durP2;ratioP2;P2;SDS_P1;SDS_P2;PMS_P1;PMS_P2;Temp;Humidity;BMP_temperature;BMP_pressure;BME280_temperature;BME280_humidity;BME280_pressure;Samples;Min_cycle;Max_cycle;Signal;HPM_P1;HPM_P2
2023/12/11 00:01:07;;;;;;;1.63;1.23;;;19.20;62.70;;;;;;4989893;28;20026;-61
2023/12/11 00:03:33;;;;;;;1.65;1.13;;;19.20;62.70;;;;;;4990835;28;20046;-61
2023/12/11 00:05:59;;;;;;;2.72;1.60;;;19.20;62.70;;;;;;4990280;28;20038;-62
2023/12/11 00:08:24;;;;;;;1.30;1.10;;;19.20;62.70;;;;;;4990865;28;20027;-61
2023/12/11 00:10:50;;;;;;;1.55;1.00;;;19.20;62.60;;;;;;4990860;28;20038;-60
2023/12/11 00:13:16;;;;;;;1.63;1.40;;;19.20;62.60;;;;;;4990707;28;20026;-62
2023/12/11 00:15:41;;;;;;;1.35;1.05;;;19.30;62.60;;;;;;4988860;28;20027;-61
2023/12/11 00:18:07;;;;;;;1.20;1.02;;;19.30;62.50;;;;;;4990558;28;20362;-60
2023/12/11 00:20:33;;;;;;;1.60;1.42;;;19.30;62.50;;;;;;4990652;28;20022;-62
2023/12/11 00:22:59;;;;;;;1.30;1.10;;;19.30;62.50;;;;;;4990490;28;20037;-62
2023/12/11 00:25:26;;;;;;;1.50;1.20;;;19.30;62.50;;;;;;4990295;28;20022;-62
2023/12/11 00:27:52;;;;;;;1.00;0.90;;;19.30;62.50;;;;;;4990517;28;20022;-62
2023/12/11 00:30:17;;;;;;;1.40;1.27;;;19.30;62.50;;;;;;4990490;28;20033;-62
2023/12/11 00:32:43;;;;;;;1.30;1.20;;;19.30;62.40;;;;;;4990558;28;20030;-62
2023/12/11 00:35:09;;;;;;;1.65;1.35;;;19.30;62.50;;;;;;4989846;28;20053;-61
2023/12/11 00:37:34;;;;;;;1.42;1.25;;;19.30;62.50;;;;;;4989182;28;20537;-62
2023/12/11 00:40:00;;;;;;;1.23;1.10;;;19.30;62.60;;;;;;4990420;28;20026;-62
2023/12/11 00:42:26;;;;;;;1.50;1.20;;;19.20;62.60;;;;;;4990377;28;20026;-62
2023/12/11 00:44:51;;;;;;;1.10;1.00;;;19.30;62.70;;;;;;4989960;28;20022;-62
2023/12/11 00:47:17;;;;;;;1.77;0.90;;;19.20;62.70;;;;;;4989848;28;20026;-62
2023/12/11 00:49:43;;;;;;;1.73;1.40;;;19.20;62.70;;;;;;4990216;28;20022;-62
2023/12/11 00:52:08;;;;;;;1.70;1.38;;;19.30;62.70;;;;;;4990183;28;20034;-62
2023/12/11 00:54:34;;;;;;;1.13;0.98;;;19.30;62.80;;;;;;4989820;28;20070;-61
2023/12/11 00:56:59;;;;;;;1.10;0.95;;;19.20;62.70;;;;;;4989842;28;20031;-62
2023/12/11 00:59:25;;;;;;;1.13;0.95;;;19.20;62.70;;;;;;5017508;23;20088;-56
2023/12/11 01:01:51;;;;;;;1.42;1.33;;;19.20;62.70;;;;;;5010792;28;20133;-59
2023/12/11 01:04:16;;;;;;;0.95;0.85;;;19.20;62.80;;;;;;5010591;28;20029;-55
2023/12/11 01:06:42;;;;;;;1.05;0.93;;;19.20;62.80;;;;;;5010485;28;20026;-55
2023/12/11 01:09:08;;;;;;;1.02;0.90;;;19.20;62.80;;;;;;5010616;28;20092;-56
2023/12/11 01:11:34;;;;;;;1.27;1.10;;;19.20;62.80;;;;;;5009966;28;20034;-56
2023/12/11 01:13:59;;;;;;;1.10;1.00;;;19.20;62.80;;;;;;5010600;28;20498;-56
2023/12/11 01:16:25;;;;;;;0.95;0.93;;;19.20;62.90;;;;;;5010181;28;20038;-54
2023/12/11 01:18:51;;;;;;;1.02;0.73;;;19.20;62.90;;;;;;5010550;28;20033;-56
2023/12/11 01:21:17;;;;;;;1.08;0.80;;;19.20;62.90;;;;;;5010607;28;20030;-56
2023/12/11 01:23:42;;;;;;;2.38;1.05;;;19.20;62.90;;;;;;5010370;28;20439;-55
2023/12/11 01:26:09;;;;;;;1.25;1.15;;;19.20;62.90;;;;;;5009942;28;20026;-56
2023/12/11 01:28:34;;;;;;;1.20;0.80;;;19.20;62.90;;;;;;5010366;28;20393;-58
2023/12/11 01:31:00;;;;;;;1.00;0.90;;;19.20;63.00;;;;;;5010444;28;20030;-56
2023/12/11 01:33:25;;;;;;;0.60;0.60;;;19.20;63.00;;;;;;5009286;28;20108;-56
2023/12/11 01:35:51;;;;;;;0.95;0.77;;;19.20;63.00;;;;;;5008737;28;20033;-56
2023/12/11 01:38:17;;;;;;;1.05;0.90;;;19.20;62.90;;;;;;5010456;28;20058;-56
2023/12/11 01:40:43;;;;;;;1.10;1.00;;;19.20;62.90;;;;;;5008971;28;20028;-56
2023/12/11 01:43:12;;;;;;;1.33;1.10;;;19.20;62.90;;;;;;5010257;28;20029;-57
2023/12/11 01:45:39;;;;;;;0.80;0.70;;;19.20;62.80;;;;;;5009500;28;20017;-55
2023/12/11 01:48:05;;;;;;;1.00;0.90;;;19.20;62.80;;;;;;5010202;28;20033;-58
2023/12/11 01:50:31;;;;;;;1.02;0.93;;;19.30;62.80;;;;;;5010197;28;20029;-57
2023/12/11 01:52:58;;;;;;;1.10;1.00;;;19.20;62.80;;;;;;5010480;28;20022;-56
2023/12/11 01:55:24;;;;;;;0.95;0.80;;;19.30;62.80;;;;;;5009571;28;20033;-56
2023/12/11 01:57:51;;;;;;;1.38;1.02;;;19.30;62.70;;;;;;5010843;28;20026;-57
2023/12/11 02:00:17;;;;;;;1.00;0.90;;;19.30;62.70;;;;;;5011212;28;20034;-57
2023/12/11 02:02:43;;;;;;;1.05;0.90;;;19.30;62.70;;;;;;5011379;28;20025;-57
2023/12/11 02:05:09;;;;;;;1.65;1.10;;;19.30;62.70;;;;;;5010728;28;20022;-58
2023/12/11 02:07:34;;;;;;;1.08;0.88;;;19.30;62.70;;;;;;5010280;28;20026;-57
2023/12/11 02:10:00;;;;;;;0.70;0.65;;;19.30;62.70;;;;;;5009112;28;20034;-59
2023/12/11 02:12:26;;;;;;;0.93;0.80;;;19.30;62.70;;;;;;5009926;28;20112;-58
2023/12/11 02:14:51;;;;;;;1.20;1.10;;;19.30;62.60;;;;;;5009538;28;20100;-56
2023/12/11 02:17:17;;;;;;;0.90;0.70;;;19.30;62.70;;;;;;5009400;28;20026;-57
2023/12/11 02:19:43;;;;;;;0.98;0.88;;;19.30;62.70;;;;;;5009655;28;20401;-57
2023/12/11 02:22:09;;;;;;;2.28;1.10;;;19.30;62.80;;;;;;5009666;28;20500;-56
2023/12/11 02:24:45;;;;;;;0.75;0.68;;;19.20;62.80;;;;;;5009345;28;20029;-56
2023/12/11 02:27:10;;;;;;;0.88;0.77;;;19.30;62.80;;;;;;5009281;28;20097;-58
2023/12/11 02:29:36;;;;;;;0.98;0.82;;;19.20;62.80;;;;;;5009392;28;20553;-56
2023/12/11 02:32:02;;;;;;;0.63;0.60;;;19.30;62.90;;;;;;5009664;28;20528;-58
2023/12/11 02:34:27;;;;;;;1.00;0.88;;;19.20;62.90;;;;;;5009220;28;20633;-56
2023/12/11 02:36:53;;;;;;;1.00;0.90;;;19.30;62.90;;;;;;5008197;28;20040;-58
2023/12/11 02:39:19;;;;;;;0.70;0.70;;;19.30;62.90;;;;;;5009473;28;20104;-57
2023/12/11 02:41:44;;;;;;;0.88;0.75;;;19.20;62.90;;;;;;5009182;28;20050;-58
2023/12/11 02:44:10;;;;;;;0.73;0.68;;;19.20;62.90;;;;;;5009088;28;20067;-58
2023/12/11 02:46:39;;;;;;;0.60;0.60;;;19.20;62.90;;;;;;5008844;28;20064;-57
2023/12/11 02:49:04;;;;;;;0.68;0.60;;;19.20;62.90;;;;;;5009467;28;20022;-58
2023/12/11 02:51:30;;;;;;;0.85;0.47;;;19.20;62.90;;;;;;5009247;28;20512;-58
2023/12/11 02:53:56;;;;;;;0.77;0.70;;;19.20;62.90;;;;;;5009113;28;20453;-57
2023/12/11 02:56:21;;;;;;;0.73;0.60;;;19.20;62.90;;;;;;5008655;28;20034;-56
2023/12/11 02:58:47;;;;;;;0.85;0.80;;;19.20;62.90;;;;;;5008910;28;20105;-57
2023/12/11 03:01:13;;;;;;;0.75;0.60;;;19.20;63.00;;;;;;5009087;28;20026;-56
2023/12/11 03:03:38;;;;;;;0.82;0.70;;;19.20;63.00;;;;;;5009176;28;20389;-57
2023/12/11 03:06:06;;;;;;;0.70;0.70;;;19.20;63.00;;;;;;5008243;28;20437;-54
2023/12/11 03:08:31;;;;;;;0.68;0.60;;;19.20;63.00;;;;;;5009006;28;20022;-56
2023/12/11 03:10:57;;;;;;;0.65;0.57;;;19.20;63.00;;;;;;5008857;28;20113;-56
2023/12/11 03:13:23;;;;;;;0.88;0.60;;;19.20;63.00;;;;;;5009081;28;20046;-57
2023/12/11 03:15:49;;;;;;;0.47;0.47;;;19.20;63.00;;;;;;5008221;28;20528;-54
2023/12/11 03:18:14;;;;;;;0.65;0.65;;;19.20;63.00;;;;;;5008810;28;20050;-57
2023/12/11 03:20:40;;;;;;;0.70;0.70;;;19.20;63.00;;;;;;5008812;28;20065;-58
2023/12/11 03:23:05;;;;;;;0.68;0.65;;;19.20;62.90;;;;;;5008703;28;20121;-56
2023/12/11 03:25:31;;;;;;;1.40;0.90;;;19.20;62.90;;;;;;5007980;28;20053;-58
2023/12/11 03:27:57;;;;;;;0.85;0.60;;;19.20;62.90;;;;;;5008724;28;20033;-58
2023/12/11 03:30:22;;;;;;;0.80;0.68;;;19.20;62.90;;;;;;5008728;28;20022;-57
2023/12/11 03:32:48;;;;;;;0.80;0.60;;;19.20;62.90;;;;;;5008770;28;20032;-54
2023/12/11 03:35:13;;;;;;;0.73;0.65;;;19.30;62.90;;;;;;5007118;28;20030;-57
2023/12/11 03:37:39;;;;;;;0.73;0.60;;;19.30;62.80;;;;;;5007713;28;20026;-58
2023/12/11 03:40:05;;;;;;;0.43;0.40;;;19.30;62.80;;;;;;5008719;28;20026;-57
2023/12/11 03:42:31;;;;;;;0.82;0.60;;;19.30;62.80;;;;;;5008531;28;20049;-57
2023/12/11 03:44:58;;;;;;;0.57;0.50;;;19.30;62.80;;;;;;5008227;28;20477;-58
2023/12/11 03:47:23;;;;;;;0.70;0.57;;;19.30;62.80;;;;;;5008318;28;20018;-57
2023/12/11 03:49:49;;;;;;;0.52;0.47;;;19.30;62.80;;;;;;5008324;28;20033;-56
2023/12/11 03:52:14;;;;;;;0.40;0.40;;;19.30;62.70;;;;;;5008331;28;20026;-56
2023/12/11 03:54:40;;;;;;;0.57;0.50;;;19.30;62.80;;;;;;5008105;28;20634;-56
2023/12/11 03:57:06;;;;;;;0.60;0.60;;;19.30;62.80;;;;;;5008016;28;20485;-57
2023/12/11 03:59:32;;;;;;;0.60;0.50;;;19.30;62.80;;;;;;5008074;28;20409;-56
2023/12/11 04:01:58;;;;;;;0.70;0.70;;;19.20;62.90;;;;;;5008385;28;20442;-57
2023/12/11 04:04:24;;;;;;;0.60;0.50;;;19.20;62.90;;;;;;5008058;28;20065;-58
2023/12/11 04:06:49;;;;;;;0.55;0.50;;;19.30;62.90;;;;;;5007763;28;20034;-57
2023/12/11 04:09:15;;;;;;;1.05;0.88;;;19.20;62.90;;;;;;5007314;28;20026;-57
2023/12/11 04:11:41;;;;;;;0.40;0.40;;;19.30;63.00;;;;;;5008105;28;20025;-57
2023/12/11 04:14:07;;;;;;;0.70;0.57;;;19.20;63.00;;;;;;5006586;28;20142;-57
2023/12/11 04:16:32;;;;;;;0.73;0.60;;;19.20;63.00;;;;;;5007653;28;20059;-57
2023/12/11 04:18:58;;;;;;;0.50;0.40;;;19.30;63.00;;;;;;5008360;28;20534;-57
2023/12/11 04:21:24;;;;;;;0.40;0.40;;;19.20;63.00;;;;;;5008197;28;20053;-58
2023/12/11 04:23:49;;;;;;;0.50;0.50;;;19.20;63.00;;;;;;5008047;28;20450;-55
2023/12/11 04:26:15;;;;;;;0.82;0.52;;;19.20;63.00;;;;;;5007726;28;20393;-56
2023/12/11 04:28:40;;;;;;;1.02;0.68;;;19.20;63.10;;;;;;5008305;28;20536;-57
2023/12/11 04:31:06;;;;;;;0.60;0.60;;;19.20;63.10;;;;;;5009170;28;20022;-56
2023/12/11 04:33:32;;;;;;;0.77;0.50;;;19.20;63.10;;;;;;5007826;28;20482;-58
2023/12/11 04:35:58;;;;;;;0.70;0.60;;;19.20;63.10;;;;;;5008775;28;20033;-58
2023/12/11 04:38:24;;;;;;;1.42;0.50;;;19.20;63.10;;;;;;5009448;28;20022;-58
2023/12/11 04:40:50;;;;;;;0.70;0.68;;;19.20;63.10;;;;;;5009564;28;20118;-57
2023/12/11 04:43:15;;;;;;;0.60;0.40;;;19.20;63.10;;;;;;5008813;28;20022;-56
2023/12/11 04:45:41;;;;;;;0.73;0.40;;;19.20;63.10;;;;;;5007016;28;20458;-56
2023/12/11 04:48:06;;;;;;;0.50;0.50;;;19.20;63.10;;;;;;5010145;28;20085;-59
2023/12/11 04:50:32;;;;;;;0.98;0.65;;;19.20;63.20;;;;;;5011386;28;20018;-59
2023/12/11 04:52:58;;;;;;;0.70;0.50;;;19.20;63.20;;;;;;5012357;28;20489;-56
2023/12/11 04:55:23;;;;;;;0.60;0.50;;;19.20;63.20;;;;;;5010666;28;20026;-59
2023/12/11 04:57:49;;;;;;;0.40;0.40;;;19.20;63.10;;;;;;5011153;28;20507;-59
2023/12/11 05:00:15;;;;;;;0.40;0.30;;;19.20;63.10;;;;;;5010909;28;20048;-59
2023/12/11 05:02:42;;;;;;;0.57;0.57;;;19.20;63.10;;;;;;5011071;28;20026;-58
2023/12/11 05:05:09;;;;;;;0.80;0.43;;;19.30;63.10;;;;;;5010662;28;20022;-58
2023/12/11 05:07:35;;;;;;;0.93;0.55;;;19.20;63.10;;;;;;5010967;28;20022;-59
2023/12/11 05:10:01;;;;;;;0.60;0.50;;;19.30;63.10;;;;;;5018609;28;20037;-56
2023/12/11 05:12:26;;;;;;;1.00;0.68;;;19.20;63.10;;;;;;5010744;28;20026;-56
2023/12/11 05:14:52;;;;;;;1.13;0.80;;;19.30;63.10;;;;;;5010241;28;20393;-58
2023/12/11 05:17:18;;;;;;;1.25;0.75;;;19.30;63.00;;;;;;5010254;28;20038;-56
2023/12/11 05:19:43;;;;;;;0.63;0.60;;;19.30;62.90;;;;;;5010679;28;20030;-58
2023/12/11 05:22:09;;;;;;;0.73;0.60;;;19.30;63.00;;;;;;5010457;28;20087;-55
2023/12/11 05:24:35;;;;;;;2.00;0.60;;;19.30;63.00;;;;;;5010224;28;20630;-57
2023/12/11 05:27:00;;;;;;;0.95;0.50;;;19.30;63.00;;;;;;5010142;28;20061;-57
2023/12/11 05:29:26;;;;;;;0.35;0.35;;;19.30;63.00;;;;;;5010298;28;20100;-58
2023/12/11 05:31:52;;;;;;;1.00;0.70;;;19.30;63.10;;;;;;5010571;28;20069;-57
2023/12/11 05:34:18;;;;;;;1.83;0.73;;;19.30;63.10;;;;;;5010280;28;20057;-58
2023/12/11 05:36:43;;;;;;;0.93;0.80;;;19.30;63.10;;;;;;5009048;28;20026;-57
2023/12/11 05:39:09;;;;;;;0.50;0.50;;;19.30;63.10;;;;;;5010251;28;20026;-53
2023/12/11 05:41:35;;;;;;;1.33;0.95;;;19.30;63.10;;;;;;5010210;28;20060;-56
2023/12/11 05:44:00;;;;;;;0.80;0.68;;;19.30;63.10;;;;;;5010072;28;20438;-58
2023/12/11 05:46:26;;;;;;;1.20;0.90;;;19.20;63.20;;;;;;5009762;28;20069;-55
2023/12/11 05:48:51;;;;;;;0.50;0.40;;;19.20;63.10;;;;;;5010212;28;20053;-53
2023/12/11 05:51:17;;;;;;;0.70;0.55;;;19.20;63.20;;;;;;5010046;28;20029;-57
2023/12/11 05:53:43;;;;;;;1.10;0.80;;;19.20;63.20;;;;;;5009970;28;20063;-57
2023/12/11 05:56:09;;;;;;;1.15;0.70;;;19.20;63.20;;;;;;5009338;28;20049;-59
2023/12/11 05:58:35;;;;;;;1.10;0.75;;;19.30;63.20;;;;;;5009593;28;20033;-57
2023/12/11 06:01:01;;;;;;;1.23;0.70;;;19.20;63.20;;;;;;5009872;28;20034;-58
2023/12/11 06:03:26;;;;;;;0.95;0.80;;;19.30;63.20;;;;;;5009874;28;20033;-58
2023/12/11 06:05:57;;;;;;;1.17;0.77;;;19.20;63.20;;;;;;5009082;28;20025;-57
2023/12/11 06:08:26;;;;;;;0.60;0.60;;;19.20;63.20;;;;;;5008904;28;20025;-58
2023/12/11 06:10:53;;;;;;;1.88;0.80;;;19.20;63.20;;;;;;5009575;28;20533;-57
2023/12/11 06:13:18;;;;;;;1.02;0.65;;;19.20;63.20;;;;;;5009442;28;20026;-55
2023/12/11 06:15:44;;;;;;;1.08;0.50;;;19.20;63.20;;;;;;5008903;28;20375;-58
2023/12/11 06:18:09;;;;;;;0.60;0.50;;;19.20;63.20;;;;;;5009842;28;20501;-57
2023/12/11 06:20:35;;;;;;;0.85;0.60;;;19.20;63.30;;;;;;5009712;28;20433;-58
2023/12/11 06:23:01;;;;;;;1.02;0.70;;;19.20;63.30;;;;;;5009509;28;20370;-57
2023/12/11 06:25:27;;;;;;;2.47;1.35;;;19.20;63.30;;;;;;5008960;28;20109;-56
2023/12/11 06:27:53;;;;;;;0.80;0.57;;;19.20;63.30;;;;;;5009472;28;20054;-56
2023/12/11 06:30:18;;;;;;;0.40;0.30;;;19.20;63.30;;;;;;5009398;28;20449;-57
2023/12/11 06:32:44;;;;;;;1.40;0.85;;;19.20;63.30;;;;;;5009608;28;20385;-57
2023/12/11 06:35:10;;;;;;;1.15;0.75;;;19.20;63.30;;;;;;5008431;28;20030;-58
2023/12/11 06:37:36;;;;;;;1.00;0.52;;;19.20;63.30;;;;;;5009466;28;20408;-57
2023/12/11 06:40:03;;;;;;;0.75;0.70;;;19.20;63.30;;;;;;5009375;28;20022;-57
2023/12/11 06:42:32;;;;;;;1.95;0.80;;;19.20;63.40;;;;;;5009334;28;20105;-56
2023/12/11 06:44:59;;;;;;;1.42;0.98;;;19.20;63.30;;;;;;5008586;28;20147;-58
2023/12/11 06:47:25;;;;;;;1.00;0.60;;;19.20;63.30;;;;;;5009262;28;20018;-58
2023/12/11 06:49:50;;;;;;;0.60;0.57;;;19.20;63.20;;;;;;5009198;28;20033;-57
2023/12/11 06:52:16;;;;;;;1.42;0.70;;;19.20;63.20;;;;;;5007902;28;20109;-59
2023/12/11 06:54:42;;;;;;;0.70;0.70;;;19.30;63.20;;;;;;5008722;28;20026;-56
2023/12/11 06:57:08;;;;;;;1.33;0.85;;;19.30;63.20;;;;;;5008823;28;20107;-57
2023/12/11 06:59:34;;;;;;;1.20;0.50;;;19.30;63.10;;;;;;5021361;23;20105;-61
2023/12/11 07:01:59;;;;;;;0.90;0.60;;;19.30;63.00;;;;;;5008614;28;20121;-61
2023/12/11 07:04:26;;;;;;;1.27;1.10;;;19.30;63.10;;;;;;5008333;28;20502;-62
2023/12/11 07:06:52;;;;;;;1.20;0.70;;;19.30;63.10;;;;;;5008104;28;20029;-61
2023/12/11 07:09:17;;;;;;;0.47;0.47;;;19.30;63.10;;;;;;5006588;28;20553;-62
2023/12/11 07:11:43;;;;;;;1.13;0.75;;;19.30;63.10;;;;;;5007920;28;20346;-61
2023/12/11 07:14:08;;;;;;;1.80;0.70;;;19.30;63.00;;;;;;5006964;28;20448;-62
2023/12/11 07:16:35;;;;;;;0.88;0.63;;;19.40;63.00;;;;;;5007833;28;20022;-61
2023/12/11 07:19:04;;;;;;;0.93;0.70;;;19.30;63.00;;;;;;5008456;28;20786;-62
2023/12/11 07:21:30;;;;;;;0.80;0.70;;;19.30;63.10;;;;;;5008900;28;20022;-62
2023/12/11 07:23:56;;;;;;;1.00;0.50;;;19.30;63.10;;;;;;5008405;28;20074;-62
2023/12/11 07:26:21;;;;;;;0.93;0.73;;;19.30;63.20;;;;;;5008070;28;20125;-63
2023/12/11 07:28:47;;;;;;;1.30;0.80;;;19.30;63.20;;;;;;5008321;28;20034;-61
2023/12/11 07:31:13;;;;;;;0.68;0.68;;;19.30;63.20;;;;;;5008280;28;20041;-62
2023/12/11 07:33:38;;;;;;;0.70;0.60;;;19.30;63.20;;;;;;5008227;28;20033;-62
2023/12/11 07:36:04;;;;;;;1.33;0.70;;;19.30;63.30;;;;;;5006299;28;20365;-61
2023/12/11 07:38:30;;;;;;;0.75;0.50;;;19.30;63.30;;;;;;5008172;28;20107;-62
2023/12/11 07:40:57;;;;;;;1.50;0.90;;;19.20;63.30;;;;;;5008227;28;20072;-62
2023/12/11 07:43:23;;;;;;;1.73;0.82;;;19.30;63.30;;;;;;5007828;28;20034;-62
2023/12/11 07:45:48;;;;;;;1.30;0.80;;;19.30;63.30;;;;;;5007367;28;20105;-62
2023/12/11 07:48:14;;;;;;;0.98;0.60;;;19.20;63.30;;;;;;5007923;28;20040;-61
2023/12/11 07:50:40;;;;;;;0.98;0.65;;;19.20;63.30;;;;;;5007787;28;20018;-62
2023/12/11 07:53:06;;;;;;;0.82;0.57;;;19.30;63.40;;;;;;5007871;28;20103;-61
2023/12/11 07:55:33;;;;;;;1.17;0.75;;;19.20;63.40;;;;;;5007085;28;20449;-62
2023/12/11 07:57:59;;;;;;;0.82;0.45;;;19.20;63.40;;;;;;5007481;28;20508;-62
2023/12/11 08:00:25;;;;;;;0.98;0.60;;;19.20;63.40;;;;;;5007358;28;20037;-61
2023/12/11 08:02:51;;;;;;;1.60;0.82;;;19.30;63.40;;;;;;5007574;28;20036;-61
2023/12/11 08:05:16;;;;;;;0.80;0.60;;;19.20;63.40;;;;;;5006968;28;20375;-61
2023/12/11 08:07:43;;;;;;;0.93;0.60;;;19.20;63.40;;;;;;5007446;28;20125;-61
2023/12/11 08:10:09;;;;;;;1.42;0.80;;;19.20;63.40;;;;;;5006819;28;20453;-62
2023/12/11 08:12:35;;;;;;;0.80;0.77;;;19.20;63.40;;;;;;5007689;28;20331;-61
2023/12/11 08:15:03;;;;;;;1.00;0.80;;;19.20;63.40;;;;;;5006808;28;20033;-63
2023/12/11 08:17:28;;;;;;;1.27;0.73;;;19.20;63.40;;;;;;5007540;28;20053;-61
2023/12/11 08:19:54;;;;;;;1.48;0.70;;;19.20;63.40;;;;;;5007494;28;20583;-61
2023/12/11 08:22:20;;;;;;;1.30;0.70;;;19.20;63.40;;;;;;5009840;28;20030;-61
2023/12/11 08:24:46;;;;;;;0.70;0.60;;;19.20;63.40;;;;;;5010724;28;20401;-60
2023/12/11 08:27:11;;;;;;;1.10;1.00;;;19.20;63.40;;;;;;5010901;28;20022;-61
2023/12/11 08:29:37;;;;;;;0.90;0.60;;;19.20;63.40;;;;;;5010724;28;20106;-61
2023/12/11 08:32:03;;;;;;;1.00;0.80;;;19.30;63.40;;;;;;5010646;28;20057;-61
2023/12/11 08:34:29;;;;;;;1.05;0.75;;;19.30;63.40;;;;;;5010162;28;20049;-61
2023/12/11 08:36:55;;;;;;;1.10;0.75;;;19.30;63.40;;;;;;5009400;28;20062;-61
2023/12/11 08:39:21;;;;;;;0.98;0.68;;;19.30;63.40;;;;;;5009940;28;20072;-61
2023/12/11 08:41:48;;;;;;;1.63;0.77;;;19.30;63.40;;;;;;5009833;28;20030;-61
2023/12/11 08:44:14;;;;;;;0.85;0.70;;;19.30;63.40;;;;;;5009654;28;20034;-62
2023/12/11 08:46:40;;;;;;;0.77;0.60;;;19.30;63.40;;;;;;5009217;28;20104;-62
2023/12/11 08:49:06;;;;;;;1.00;0.70;;;19.30;63.40;;;;;;5009691;28;20030;-61
2023/12/11 08:51:33;;;;;;;0.90;0.65;;;19.30;63.40;;;;;;5009560;28;20065;-61
2023/12/11 08:53:59;;;;;;;0.75;0.52;;;19.40;63.40;;;;;;5008139;28;20033;-61
2023/12/11 08:56:24;;;;;;;0.63;0.60;;;19.40;63.40;;;;;;5009080;28;20022;-62
2023/12/11 08:58:51;;;;;;;0.88;0.60;;;19.40;63.30;;;;;;5009745;28;20098;-62
2023/12/11 09:01:17;;;;;;;1.48;0.80;;;19.40;63.40;;;;;;5009612;28;20052;-61
2023/12/11 09:03:44;;;;;;;1.08;0.80;;;19.40;63.40;;;;;;5009804;28;20033;-61
2023/12/11 09:06:10;;;;;;;1.10;0.50;;;19.40;63.30;;;;;;5008949;28;20078;-62
2023/12/11 09:08:35;;;;;;;0.75;0.50;;;19.40;63.40;;;;;;5009534;28;20030;-61
2023/12/11 09:11:01;;;;;;;1.48;0.80;;;19.40;63.30;;;;;;5009672;28;20022;-61
2023/12/11 09:13:27;;;;;;;0.70;0.60;;;19.50;63.30;;;;;;5009466;28;20030;-61
2023/12/11 09:15:52;;;;;;;0.82;0.60;;;19.50;63.20;;;;;;5008970;28;20032;-61
2023/12/11 09:18:18;;;;;;;0.82;0.57;;;19.50;63.20;;;;;;5009369;28;20366;-61
2023/12/11 09:20:44;;;;;;;0.50;0.50;;;19.50;63.30;;;;;;5012243;28;20481;-61
2023/12/11 09:23:10;;;;;;;1.00;0.65;;;19.50;63.20;;;;;;5009231;28;20030;-61
2023/12/11 09:25:36;;;;;;;1.13;0.70;;;19.50;63.30;;;;;;5009040;28;20551;-61
2023/12/11 09:28:04;;;;;;;1.00;0.68;;;19.50;63.20;;;;;;5009201;28;20033;-61
2023/12/11 09:30:30;;;;;;;0.82;0.60;;;19.50;63.20;;;;;;5008920;28;20087;-61
2023/12/11 09:32:56;;;;;;;1.15;0.52;;;19.50;63.20;;;;;;5008522;28;20565;-62
2023/12/11 09:35:21;;;;;;;0.73;0.60;;;19.50;63.10;;;;;;5008588;28;20033;-61
2023/12/11 09:37:47;;;;;;;1.48;0.50;;;19.60;63.10;;;;;;5009171;28;20026;-61
2023/12/11 09:40:13;;;;;;;1.02;0.40;;;19.50;63.10;;;;;;5008950;28;20046;-61
2023/12/11 09:42:41;;;;;;;0.80;0.55;;;19.60;63.10;;;;;;5008963;28;20037;-61
2023/12/11 09:45:09;;;;;;;0.73;0.40;;;19.60;63.20;;;;;;5008428;28;20032;-61
2023/12/11 09:47:40;;;;;;;0.77;0.60;;;19.60;63.10;;;;;;5008953;28;20478;-61
2023/12/11 09:50:06;;;;;;;0.90;0.50;;;19.60;63.10;;;;;;5008748;28;20485;-61
2023/12/11 09:52:32;;;;;;;0.60;0.50;;;19.60;63.10;;;;;;5008993;28;20068;-62
2023/12/11 09:54:58;;;;;;;1.30;0.60;;;19.60;63.10;;;;;;5008426;28;20046;-61
2023/12/11 09:57:26;;;;;;;0.47;0.43;;;19.60;63.10;;;;;;5008513;28;20026;-61
2023/12/11 09:59:52;;;;;;;0.60;0.50;;;19.70;63.10;;;;;;5008760;28;20038;-62
2023/12/11 10:02:18;;;;;;;1.00;0.70;;;19.60;63.10;;;;;;5008591;28;20091;-61
2023/12/11 10:05:09;;;;;;;0.77;0.60;;;19.60;63.10;;;;;;5008461;28;20091;-61
2023/12/11 10:07:37;;;;;;;0.93;0.60;;;19.60;63.10;;;;;;5008489;28;20026;-62
2023/12/11 10:10:23;;;;;;;0.70;0.52;;;19.70;63.10;;;;;;5008668;28;20030;-61
2023/12/11 10:12:49;;;;;;;0.52;0.45;;;19.60;63.20;;;;;;5007173;28;20045;-61
2023/12/11 10:15:26;;;;;;;0.70;0.50;;;19.60;63.20;;;;;;5007826;28;20030;-61
2023/12/11 10:18:12;;;;;;;1.00;0.40;;;19.60;63.20;;;;;;5008452;28;20038;-62
2023/12/11 10:20:42;;;;;;;0.47;0.40;;;19.60;63.20;;;;;;5008536;28;20050;-62
2023/12/11 10:23:16;;;;;;;1.20;0.65;;;19.60;63.20;;;;;;5008363;28;20030;-61
2023/12/11 10:25:50;;;;;;;0.98;0.70;;;19.60;63.20;;;;;;5007592;28;20029;-61
2023/12/11 10:28:21;;;;;;;0.95;0.75;;;19.60;63.20;;;;;;5008280;28;20421;-62
2023/12/11 10:30:53;;;;;;;0.50;0.40;;;19.60;63.20;;;;;;5008259;28;20445;-62
2023/12/11 10:33:19;;;;;;;0.63;0.38;;;19.50;63.20;;;;;;5008241;28;20018;-61
2023/12/11 10:35:46;;;;;;;0.60;0.60;;;19.60;63.30;;;;;;5007970;28;20396;-63
2023/12/11 10:38:20;;;;;;;1.10;0.70;;;19.60;63.30;;;;;;5008371;28;20101;-61
2023/12/11 10:40:45;;;;;;;0.75;0.52;;;19.60;63.30;;;;;;5008193;28;20033;-61
2023/12/11 10:43:11;;;;;;;1.05;0.40;;;19.60;63.30;;;;;;5008169;28;20026;-61
2023/12/11 10:45:37;;;;;;;1.00;0.63;;;19.50;63.30;;;;;;5006412;28;20045;-61
2023/12/11 10:48:03;;;;;;;0.65;0.50;;;19.50;63.30;;;;;;5008320;28;20026;-61
2023/12/11 10:50:30;;;;;;;0.85;0.40;;;19.50;63.30;;;;;;5008161;28;20022;-60
2023/12/11 10:52:59;;;;;;;1.48;0.70;;;19.50;63.40;;;;;;5008187;28;20030;-59
2023/12/11 10:55:25;;;;;;;0.80;0.55;;;19.50;63.40;;;;;;5007497;28;20026;-62
2023/12/11 10:57:52;;;;;;;0.73;0.60;;;19.50;63.40;;;;;;5008111;28;20499;-61
2023/12/11 11:00:20;;;;;;;0.63;0.40;;;19.50;63.40;;;;;;5007849;28;20038;-61
2023/12/11 11:02:50;;;;;;;3.42;0.60;;;19.50;63.40;;;;;;5008021;28;20110;-61
2023/12/11 11:05:17;;;;;;;1.15;0.63;;;19.50;63.40;;;;;;5007183;28;20018;-61
2023/12/11 11:08:20;;;;;;;0.65;0.52;;;19.50;63.30;;;;;;5007748;28;20038;-61
2023/12/11 11:11:23;;;;;;;1.17;0.40;;;19.50;63.30;;;;;;4984236;28;20034;-61
2023/12/11 11:14:17;;;;;;;1.20;0.77;;;19.50;63.30;;;;;;5007762;28;20026;-61
2023/12/11 11:16:55;;;;;;;0.98;0.57;;;19.50;63.30;;;;;;5007540;28;20519;-61
2023/12/11 11:19:21;;;;;;;0.68;0.50;;;19.60;63.30;;;;;;5010150;28;20089;-62
2023/12/11 11:22:00;;;;;;;1.13;0.60;;;19.50;63.30;;;;;;5009741;28;20462;-61
2023/12/11 11:24:29;;;;;;;0.95;0.57;;;19.50;63.30;;;;;;5009216;28;20076;-62
2023/12/11 11:26:55;;;;;;;0.22;0.22;;;19.50;63.30;;;;;;5007313;28;20483;-61
2023/12/11 11:29:41;;;;;;;0.68;0.52;;;19.50;63.30;;;;;;5007441;28;20124;-61
2023/12/11 11:32:07;;;;;;;0.82;0.50;;;19.50;63.30;;;;;;5007317;28;20026;-61
2023/12/11 11:34:39;;;;;;;0.38;0.38;;;19.50;63.30;;;;;;5007198;28;20510;-61
2023/12/11 11:37:14;;;;;;;0.30;0.30;;;19.50;63.30;;;;;;5006939;28;20086;-61
2023/12/11 11:39:59;;;;;;;0.80;0.35;;;19.60;63.30;;;;;;5007438;28;20030;-60
2023/12/11 11:42:30;;;;;;;0.50;0.30;;;19.50;63.30;;;;;;5007948;28;20044;-62
2023/12/11 11:44:57;;;;;;;1.38;0.75;;;19.60;63.30;;;;;;5008182;28;20500;-61
2023/12/11 11:47:24;;;;;;;0.20;0.20;;;19.60;63.20;;;;;;5008031;28;20048;-61
2023/12/11 11:49:50;;;;;;;0.73;0.40;;;19.60;63.20;;;;;;5008633;28;20023;-62
2023/12/11 11:52:25;;;;;;;1.08;0.50;;;19.60;63.20;;;;;;5008500;28;20029;-62
2023/12/11 11:54:54;;;;;;;0.50;0.40;;;19.50;63.20;;;;;;5008401;28;20610;-62
2023/12/11 11:57:28;;;;;;;0.43;0.40;;;19.60;63.20;;;;;;5010881;28;20037;-61
2023/12/11 11:59:57;;;;;;;0.30;0.30;;;19.50;63.20;;;;;;5011638;28;20038;-61
2023/12/11 12:02:23;;;;;;;3.55;0.30;;;19.50;63.20;;;;;;5001980;28;20026;-59
2023/12/11 12:04:48;;;;;;;1.48;0.45;;;19.50;63.20;;;;;;4991245;28;20026;-58
2023/12/11 12:07:14;;;;;;;0.88;0.50;;;19.50;63.20;;;;;;4990801;28;20489;-58
2023/12/11 12:09:40;;;;;;;11.20;1.20;;;19.50;63.30;;;;;;4990796;28;20177;-63
2023/12/11 12:12:13;;;;;;;3.92;1.10;;;19.60;63.30;;;;;;4992076;28;20033;-60
2023/12/11 12:14:38;;;;;;;11.02;1.20;;;19.60;63.40;;;;;;4992139;28;20083;-60
2023/12/11 12:17:09;;;;;;;6.38;0.90;;;19.60;63.50;;;;;;4997455;28;20104;-61
2023/12/11 12:19:35;;;;;;;5.70;1.00;;;19.60;63.60;;;;;;5002546;28;20022;-63
2023/12/11 12:22:04;;;;;;;18.23;1.10;;;19.50;63.70;;;;;;5010648;28;20037;-63
2023/12/11 12:24:30;;;;;;;11.98;1.13;;;19.50;64.00;;;;;;5011382;28;20488;-64
2023/12/11 12:26:56;;;;;;;5.18;0.80;;;19.50;64.10;;;;;;5010860;28;20033;-63
2023/12/11 12:29:22;;;;;;;9.48;1.02;;;19.50;64.00;;;;;;5011093;28;20030;-64
2023/12/11 12:31:48;;;;;;;4.78;1.00;;;19.50;64.20;;;;;;5011471;28;20025;-62
2023/12/11 12:34:16;;;;;;;6.00;0.82;;;19.50;64.10;;;;;;5011380;28;20018;-62
2023/12/11 12:36:43;;;;;;;10.10;1.02;;;19.50;64.00;;;;;;5011250;28;20022;-62
2023/12/11 12:39:12;;;;;;;5.40;1.00;;;19.60;64.00;;;;;;5011495;28;20026;-61
2023/12/11 12:41:38;;;;;;;4.30;0.95;;;19.50;64.10;;;;;;5011086;28;20056;-65
2023/12/11 12:44:04;;;;;;;8.10;1.38;;;19.50;64.10;;;;;;5010585;28;20489;-64